Time;durP1;ratioP1;P1;durP2;ratioP2;P2;SDS_P1;SDS_P2;PMS_P1;PMS_P2;Temp;Humidity;BMP_temperature;BMP_pressure;BME280_temperature;BME280_humidity;BME280_pressure;Samples;Min_cycle;Max_cycle;Signal;HPM_P1;HPM_P2
2022/10/09 00:01:14;;;;;;;0.30;0.30;;;;;;;8.56;100.00;101337.31;5012914;28;20291;-73
2022/10/09 00:03:43;;;;;;;0.47;0.47;;;;;;;8.60;100.00;101343.84;5027849;28;20203;-73
2022/10/09 00:06:10;;;;;;;0.63;0.63;;;;;;;8.55;100.00;101334.88;5012505;28;20200;-73
2022/10/09 00:08:42;;;;;;;0.20;0.20;;;;;;;8.52;100.00;101341.66;5012927;28;20254;-73
2022/10/09 00:11:10;;;;;;;0.77;0.63;;;;;;;8.54;100.00;101336.78;5012841;28;20204;-72
2022/10/09 00:13:36;;;;;;;0.60;0.60;;;;;;;8.53;100.00;101343.28;5012494;28;20294;-73
2022/10/09 00:16:07;;;;;;;0.87;0.73;;;;;;;8.45;100.00;101335.69;5012355;28;20173;-73
2022/10/09 00:18:34;;;;;;;1.83;1.27;;;;;;;8.44;100.00;101344.16;5011136;28;20474;-73
2022/10/09 00:20:59;;;;;;;3.33;1.60;;;;;;;8.42;100.00;101344.41;5012446;28;20608;-73
2022/10/09 00:23:25;;;;;;;1.60;0.80;;;;;;;8.38;100.00;101347.94;5012455;28;20235;-73
2022/10/09 00:25:56;;;;;;;1.33;0.80;;;;;;;8.39;100.00;101344.97;5012128;28;20243;-73
2022/10/09 00:28:24;;;;;;;0.73;0.57;;;;;;;8.41;100.00;101341.97;5012450;28;20169;-73
2022/10/09 00:30:50;;;;;;;0.30;0.30;;;;;;;8.43;100.00;101345.25;5012243;28;20184;-73
2022/10/09 00:33:16;;;;;;;0.20;0.20;;;;;;;8.41;100.00;101353.69;5012206;28;20781;-72
2022/10/09 00:35:41;;;;;;;0.47;0.37;;;;;;;8.42;100.00;101354.50;5011904;28;20517;-73
2022/10/09 00:38:07;;;;;;;0.20;0.20;;;;;;;8.44;100.00;101344.97;5012081;28;20176;-73
2022/10/09 00:40:34;;;;;;;2.30;0.90;;;;;;;8.41;100.00;101347.41;5012269;28;20181;-73
2022/10/09 00:42:59;;;;;;;3.83;0.47;;;;;;;8.34;100.00;101350.41;5012426;28;20231;-73
2022/10/09 00:45:25;;;;;;;0.50;0.23;;;;;;;8.28;100.00;101346.84;5012118;28;20577;-73
2022/10/09 00:47:58;;;;;;;2.30;0.77;;;;;;;8.18;100.00;101346.84;5011953;28;20180;-73
2022/10/09 00:50:26;;;;;;;0.93;0.87;;;;;;;8.15;100.00;101358.28;5011496;28;20690;-73
2022/10/09 00:52:56;;;;;;;0.10;0.10;;;;;;;8.10;100.00;101354.72;5012511;28;20219;-73
2022/10/09 00:55:22;;;;;;;0.43;0.43;;;;;;;8.07;100.00;101356.09;5012266;28;20313;-73
2022/10/09 00:57:49;;;;;;;0.33;0.33;;;;;;;8.04;100.00;101353.94;5011625;28;20184;-73
2022/10/09 01:00:15;;;;;;;1.10;0.97;;;;;;;8.04;100.00;101348.50;5012312;28;20223;-73
2022/10/09 01:02:40;;;;;;;12.53;0.60;;;;;;;8.03;100.00;101355.03;5011726;28;20177;-73
2022/10/09 01:05:07;;;;;;;5.70;1.10;;;;;;;8.01;100.00;101355.28;5011820;28;20176;-73
2022/10/09 01:07:45;;;;;;;0.93;0.93;;;;;;;7.99;100.00;101357.47;5011442;28;20196;-73
2022/10/09 01:10:29;;;;;;;1.17;0.83;;;;;;;7.98;100.00;101357.75;5011605;28;20311;-73
2022/10/09 01:13:07;;;;;;;1.03;0.93;;;;;;;7.96;100.00;101362.66;5011624;28;20173;-73
2022/10/09 01:15:47;;;;;;;0.60;0.60;;;;;;;7.93;100.00;101363.16;5011474;28;20314;-73
2022/10/09 01:18:41;;;;;;;6.77;0.50;;;;;;;7.90;100.00;101366.44;5011463;28;20212;-73
2022/10/09 01:21:13;;;;;;;0.97;0.97;;;;;;;7.88;100.00;101365.91;5026689;28;20176;-73
2022/10/09 01:24:04;;;;;;;16.73;0.50;;;;;;;7.85;100.00;101361.00;5009356;28;20521;-73
2022/10/09 01:27:04;;;;;;;0.73;0.73;;;;;;;7.88;100.00;101364.00;5007902;28;20176;-73
2022/10/09 01:29:53;;;;;;;3.23;0.83;;;;;;;7.86;100.00;101358.00;5011186;28;20580;-73
2022/10/09 01:32:26;;;;;;;0.37;0.30;;;;;;;7.88;100.00;101365.91;5011175;28;20652;-73
2022/10/09 01:34:52;;;;;;;0.30;0.30;;;;;;;7.92;100.00;101356.09;5011065;28;20204;-73
2022/10/09 01:37:20;;;;;;;0.57;0.57;;;;;;;7.95;100.00;101359.09;5010457;28;20184;-73
2022/10/09 01:39:47;;;;;;;0.40;0.40;;;;;;;7.96;100.00;101365.38;4993367;28;20176;-73
2022/10/09 01:42:14;;;;;;;0.20;0.20;;;;;;;7.96;100.00;101359.94;5011089;28;20186;-73
2022/10/09 01:44:40;;;;;;;3.07;0.60;;;;;;;7.93;100.00;101360.44;5011036;28;20208;-73
2022/10/09 01:47:08;;;;;;;0.30;0.30;;;;;;;7.89;100.00;101360.19;4992756;28;20275;-73
2022/10/09 01:49:36;;;;;;;0.40;0.40;;;;;;;7.89;100.00;101367.53;5010988;28;20180;-73
2022/10/09 01:52:05;;;;;;;0.80;0.80;;;;;;;7.88;100.00;101358.56;5010879;28;20219;-73
2022/10/09 01:54:45;;;;;;;0.10;0.10;;;;;;;7.88;100.00;101363.19;5010702;28;20620;-73
2022/10/09 01:57:13;;;;;;;0.30;0.30;;;;;;;7.89;100.00;101362.09;5010744;28;20220;-73
2022/10/09 01:59:42;;;;;;;0.00;0.00;;;;;;;7.87;100.00;101367.00;5011043;28;20695;-73
2022/10/09 02:02:08;;;;;;;0.00;0.00;;;;;;;7.83;100.00;101361.28;5010599;28;20274;-73
2022/10/09 02:04:37;;;;;;;0.00;0.00;;;;;;;7.73;100.00;101353.91;5010831;28;20195;-74
2022/10/09 02:07:04;;;;;;;0.00;0.00;;;;;;;7.55;100.00;101357.16;4992747;28;20604;-73
2022/10/09 02:09:31;;;;;;;0.00;0.00;;;;;;;7.50;100.00;101351.69;5010964;28;20191;-73
2022/10/09 02:12:03;;;;;;;0.00;0.00;;;;;;;7.23;100.00;101356.47;5010736;28;20177;-73
2022/10/09 02:14:28;;;;;;;0.00;0.00;;;;;;;7.18;100.00;101348.31;5010610;28;20299;-73
2022/10/09 02:17:06;;;;;;;0.00;0.00;;;;;;;7.03;100.00;101349.91;5010349;28;20255;-72
2022/10/09 02:19:42;;;;;;;0.00;0.00;;;;;;;7.10;100.00;101353.19;5012767;28;20263;-73
2022/10/09 02:22:17;;;;;;;0.00;0.00;;;;;;;6.99;100.00;101348.81;5017256;28;20267;-73
2022/10/09 02:24:43;;;;;;;0.00;0.00;;;;;;;6.98;100.00;101358.03;5017046;28;20175;-73
2022/10/09 02:27:10;;;;;;;0.00;0.00;;;;;;;6.89;100.00;101354.19;5016830;28;20316;-72
2022/10/09 02:29:41;;;;;;;0.00;0.00;;;;;;;7.09;100.00;101359.72;5017069;28;20183;-73
2022/10/09 02:32:06;;;;;;;0.00;0.00;;;;;;;7.03;100.00;101359.94;5016885;28;20211;-73
2022/10/09 02:34:32;;;;;;;0.10;0.10;;;;;;;6.92;100.00;101360.97;5016928;28;20239;-73
2022/10/09 02:36:57;;;;;;;0.10;0.10;;;;;;;6.76;100.00;101362.78;5016880;28;20653;-73
2022/10/09 02:39:22;;;;;;;0.00;0.00;;;;;;;6.75;100.00;101359.25;5017129;28;20173;-72
2022/10/09 02:41:48;;;;;;;0.00;0.00;;;;;;;6.70;100.00;101358.44;5016793;28;20543;-73
2022/10/09 02:44:13;;;;;;;0.00;0.00;;;;;;;6.59;100.00;101356.72;5015551;28;20299;-74
2022/10/09 02:46:38;;;;;;;0.00;0.00;;;;;;;6.43;100.00;101364.78;5016190;28;20172;-73
2022/10/09 02:49:05;;;;;;;0.00;0.00;;;;;;;6.16;100.00;101358.59;5016988;28;20177;-73
2022/10/09 02:51:30;;;;;;;0.00;0.00;;;;;;;6.35;100.00;101357.09;5016832;28;20168;-73
2022/10/09 02:53:55;;;;;;;0.00;0.00;;;;;;;6.46;100.00;101366.97;5016615;28;20202;-73
2022/10/09 02:56:22;;;;;;;0.00;0.00;;;;;;;6.45;100.00;101359.09;5015271;28;20172;-73
2022/10/09 02:58:47;;;;;;;0.00;0.00;;;;;;;6.32;100.00;101365.78;5017083;28;20173;-73
2022/10/09 03:01:13;;;;;;;0.00;0.00;;;;;;;6.46;100.00;101366.16;5016756;28;20181;-73
2022/10/09 03:03:38;;;;;;;0.00;0.00;;;;;;;6.46;100.00;101369.69;5016565;28;20195;-73
2022/10/09 03:06:09;;;;;;;3.87;3.67;;;;;;;6.50;100.00;101362.63;5016471;28;20168;-73
2022/10/09 03:08:37;;;;;;;0.00;0.00;;;;;;;6.36;100.00;101357.94;5016648;28;20173;-73
2022/10/09 03:11:02;;;;;;;0.00;0.00;;;;;;;6.33;100.00;101353.84;5016576;28;20180;-73
2022/10/09 03:13:27;;;;;;;0.00;0.00;;;;;;;6.02;100.00;101351.97;5016496;28;20210;-73
2022/10/09 03:15:53;;;;;;;0.00;0.00;;;;;;;6.05;100.00;101349.56;4998855;28;20176;-73
2022/10/09 03:18:18;;;;;;;0.00;0.00;;;;;;;6.21;100.00;101356.72;5016679;28;20235;-73
2022/10/09 03:20:44;;;;;;;0.00;0.00;;;;;;;6.27;100.00;101354.88;5016691;28;20177;-73
2022/10/09 03:23:09;;;;;;;0.00;0.00;;;;;;;6.19;100.00;101348.03;5016458;28;20206;-73
2022/10/09 03:25:34;;;;;;;1.10;1.10;;;;;;;6.25;100.00;101354.34;5016432;28;20172;-73
2022/10/09 03:28:00;;;;;;;0.00;0.00;;;;;;;6.27;100.00;101354.88;5016231;28;20180;-73
2022/10/09 03:30:25;;;;;;;0.00;0.00;;;;;;;6.51;100.00;101349.91;5015654;28;20181;-73
2022/10/09 03:32:50;;;;;;;0.00;0.00;;;;;;;6.49;100.00;101361.00;5011261;28;20540;-73
2022/10/09 03:35:16;;;;;;;0.00;0.00;;;;;;;6.13;100.00;101351.81;5013519;28;20208;-73
2022/10/09 03:37:41;;;;;;;0.00;0.00;;;;;;;5.72;100.00;101360.63;5013140;28;20173;-73
2022/10/09 03:40:07;;;;;;;0.00;0.00;;;;;;;5.76;100.00;101356.31;5013221;28;20272;-73
2022/10/09 03:42:32;;;;;;;0.00;0.00;;;;;;;5.76;100.00;101359.84;5012995;28;20176;-73
2022/10/09 03:45:01;;;;;;;0.00;0.00;;;;;;;5.92;100.00;101358.13;5013228;28;20214;-73
2022/10/09 03:47:27;;;;;;;0.00;0.00;;;;;;;6.00;100.00;101367.69;5012563;28;20195;-73
2022/10/09 03:49:52;;;;;;;0.00;0.00;;;;;;;6.04;100.00;101361.47;5011944;28;20624;-73
2022/10/09 03:52:17;;;;;;;0.00;0.00;;;;;;;5.89;100.00;101366.75;5012996;28;20610;-73
2022/10/09 03:54:43;;;;;;;0.00;0.00;;;;;;;5.61;100.00;101367.81;5012906;28;20663;-74
2022/10/09 03:57:08;;;;;;;0.00;0.00;;;;;;;5.82;100.00;101374.28;5012630;28;20180;-73
2022/10/09 03:59:33;;;;;;;0.00;0.00;;;;;;;5.89;100.00;101370.28;5011397;28;20176;-73
2022/10/09 04:01:58;;;;;;;0.00;0.00;;;;;;;6.01;100.00;101366.63;5013088;28;20180;-73
2022/10/09 04:04:24;;;;;;;0.00;0.00;;;;;;;5.83;100.00;101376.72;5012804;28;20663;-73
2022/10/09 04:06:49;;;;;;;0.00;0.00;;;;;;;5.77;100.00;101377.75;5012545;28;20177;-73
2022/10/09 04:09:14;;;;;;;0.20;0.20;;;;;;;5.83;100.00;101381.34;5012593;28;20199;-72
2022/10/09 04:11:40;;;;;;;0.00;0.00;;;;;;;5.72;100.00;101387.72;5012938;28;20184;-73
2022/10/09 04:14:05;;;;;;;0.67;0.67;;;;;;;5.78;100.00;101375.84;5012464;28;20223;-73
2022/10/09 04:16:30;;;;;;;0.00;0.00;;;;;;;5.65;100.00;101379.81;5012283;28;20250;-73
2022/10/09 04:18:55;;;;;;;0.53;0.53;;;;;;;5.46;100.00;101382.03;5012447;28;20176;-73
2022/10/09 04:21:21;;;;;;;0.00;0.00;;;;;;;5.27;100.00;101373.44;5012516;28;20181;-72
2022/10/09 04:23:46;;;;;;;0.00;0.00;;;;;;;5.17;100.00;101381.41;5012277;28;20191;-73
2022/10/09 04:26:12;;;;;;;0.00;0.00;;;;;;;5.07;100.00;101373.19;5012412;28;20200;-73
2022/10/09 04:28:38;;;;;;;0.10;0.10;;;;;;;5.18;100.00;101377.63;5012414;28;20527;-73
2022/10/09 04:31:03;;;;;;;0.07;0.07;;;;;;;5.73;100.00;101375.81;5012448;28;20702;-73
2022/10/09 04:33:29;;;;;;;0.00;0.00;;;;;;;6.15;100.00;101365.09;5012077;28;20177;-73
2022/10/09 04:35:56;;;;;;;1.00;0.97;;;;;;;6.41;100.00;101377.78;5012009;28;20169;-73
2022/10/09 04:38:22;;;;;;;0.27;0.20;;;;;;;6.53;100.00;101367.56;5011969;28;20269;-73
2022/10/09 04:40:55;;;;;;;0.20;0.20;;;;;;;6.73;100.00;101369.56;5012308;28;20251;-73
2022/10/09 04:43:20;;;;;;;0.20;0.20;;;;;;;6.88;100.00;101371.56;5011644;28;20185;-73
2022/10/09 04:45:46;;;;;;;0.00;0.00;;;;;;;6.95;100.00;101364.00;5011877;28;20238;-73
2022/10/09 04:48:11;;;;;;;0.00;0.00;;;;;;;6.59;100.00;101367.59;5011511;28;20187;-73
2022/10/09 04:50:39;;;;;;;0.00;0.00;;;;;;;6.08;100.00;101361.81;5011875;28;20180;-73
2022/10/09 04:53:05;;;;;;;0.00;0.00;;;;;;;5.84;100.00;101364.81;5012350;28;20189;-73
2022/10/09 04:55:30;;;;;;;0.00;0.00;;;;;;;5.62;100.00;101367.56;5011734;28;20562;-73
2022/10/09 04:57:55;;;;;;;0.00;0.00;;;;;;;5.41;100.00;101364.91;5011555;28;20556;-73
2022/10/09 05:00:21;;;;;;;0.30;0.30;;;;;;;5.44;100.00;101362.50;5011913;28;20172;-73
2022/10/09 05:02:46;;;;;;;0.00;0.00;;;;;;;5.73;100.00;101362.25;5011624;28;20268;-73
2022/10/09 05:05:11;;;;;;;0.00;0.00;;;;;;;5.70;100.00;101373.63;5011994;28;20580;-73
2022/10/09 05:07:37;;;;;;;0.00;0.00;;;;;;;5.46;100.00;101371.19;5011525;28;20176;-73
2022/10/09 05:10:03;;;;;;;0.10;0.10;;;;;;;5.31;100.00;101376.44;5011803;28;20260;-73
2022/10/09 05:12:29;;;;;;;0.00;0.00;;;;;;;5.19;100.00;101363.03;5011364;28;20200;-73
2022/10/09 05:14:54;;;;;;;0.00;0.00;;;;;;;5.02;100.00;101364.97;5011435;28;20761;-73
2022/10/09 05:17:19;;;;;;;0.00;0.00;;;;;;;5.25;100.00;101367.44;5011118;28;20183;-74
2022/10/09 05:19:44;;;;;;;0.00;0.00;;;;;;;5.49;100.00;101367.97;5011271;28;20173;-73
2022/10/09 05:22:10;;;;;;;0.00;0.00;;;;;;;5.55;100.00;101374.28;5011343;28;20171;-73
2022/10/09 05:24:35;;;;;;;0.00;0.00;;;;;;;5.59;100.00;101375.41;5011296;28;20644;-73
2022/10/09 05:27:00;;;;;;;0.00;0.00;;;;;;;5.51;100.00;101384.00;5011002;28;20168;-73
2022/10/09 05:29:26;;;;;;;0.00;0.00;;;;;;;5.48;100.00;101379.88;5011503;28;20173;-73
2022/10/09 05:31:51;;;;;;;0.00;0.00;;;;;;;5.48;100.00;101382.59;5011079;28;20333;-73
2022/10/09 05:34:16;;;;;;;0.00;0.00;;;;;;;5.50;100.00;101383.19;5010912;28;20207;-73
2022/10/09 05:36:41;;;;;;;0.00;0.00;;;;;;;5.38;100.00;101386.03;5010973;28;20200;-73
2022/10/09 05:39:07;;;;;;;0.00;0.00;;;;;;;5.30;100.00;101391.06;5011236;28;20173;-73
2022/10/09 05:41:32;;;;;;;0.10;0.10;;;;;;;5.25;100.00;101393.72;5011207;28;20168;-73
2022/10/09 05:44:01;;;;;;;0.00;0.00;;;;;;;5.11;100.00;101390.56;5010983;28;20172;-73
2022/10/09 05:46:28;;;;;;;0.00;0.00;;;;;;;5.02;100.00;101389.34;5010207;28;20234;-73
2022/10/09 05:48:59;;;;;;;0.00;0.00;;;;;;;4.95;100.00;101397.69;5010911;28;20236;-73
2022/10/09 05:51:42;;;;;;;0.00;0.00;;;;;;;4.87;100.00;101392.69;5010905;28;20180;-73
2022/10/09 05:54:13;;;;;;;0.00;0.00;;;;;;;4.95;100.00;101386.03;5010089;28;20204;-73
2022/10/09 05:56:38;;;;;;;0.00;0.00;;;;;;;4.98;100.00;101389.03;5010520;28;20207;-73
2022/10/09 05:59:13;;;;;;;0.00;0.00;;;;;;;5.08;100.00;101400.03;5010792;28;20177;-73
2022/10/09 06:01:41;;;;;;;1.07;1.07;;;;;;;5.17;100.00;101392.25;5010863;28;20657;-73
2022/10/09 06:04:11;;;;;;;0.00;0.00;;;;;;;5.21;100.00;101390.69;5010685;28;20192;-73
2022/10/09 06:06:38;;;;;;;0.00;0.00;;;;;;;5.26;100.00;101404.31;5010564;28;20213;-73
2022/10/09 06:09:05;;;;;;;0.40;0.40;;;;;;;5.29;100.00;101405.69;5010540;28;20164;-73
2022/10/09 06:11:32;;;;;;;0.17;0.17;;;;;;;5.23;100.00;101410.22;5009655;28;20183;-73
2022/10/09 06:13:59;;;;;;;0.00;0.00;;;;;;;5.24;100.00;101403.75;5010443;28;20491;-73
2022/10/09 06:16:27;;;;;;;0.00;0.00;;;;;;;5.33;100.00;101404.91;5005808;28;20193;-73
2022/10/09 06:18:53;;;;;;;0.00;0.00;;;;;;;5.27;100.00;101408.66;5013796;28;20857;-73
2022/10/09 06:21:19;;;;;;;0.00;0.00;;;;;;;5.40;100.00;101406.63;5015720;28;20655;-73
2022/10/09 06:23:48;;;;;;;0.00;0.00;;;;;;;5.50;100.00;101420.31;5011208;28;20176;-73
2022/10/09 06:26:14;;;;;;;0.00;0.00;;;;;;;5.59;100.00;101411.44;5010471;28;20169;-75
2022/10/09 06:28:39;;;;;;;0.00;0.00;;;;;;;5.64;100.00;101419.66;5010976;28;20165;-73
2022/10/09 06:31:10;;;;;;;0.00;0.00;;;;;;;5.66;100.00;101413.97;5011012;28;20180;-73
2022/10/09 06:33:38;;;;;;;0.00;0.00;;;;;;;5.76;100.00;101419.50;5010892;28;20636;-73
2022/10/09 06:36:18;;;;;;;0.00;0.00;;;;;;;5.83;100.00;101412.00;5010824;28;20250;-75
2022/10/09 06:38:44;;;;;;;0.00;0.00;;;;;;;5.89;100.00;101421.81;5011044;28;20180;-75
2022/10/09 06:41:12;;;;;;;0.00;0.00;;;;;;;5.96;100.00;101430.59;5017314;28;20204;-76
2022/10/09 06:43:38;;;;;;;0.00;0.00;;;;;;;6.05;100.00;101422.78;5030284;28;20273;-75
2022/10/09 06:46:06;;;;;;;0.00;0.00;;;;;;;6.13;100.00;101427.75;5030892;28;20176;-74
2022/10/09 06:48:33;;;;;;;0.00;0.00;;;;;;;6.21;100.00;101419.13;5030393;28;20180;-74
2022/10/09 06:51:09;;;;;;;0.00;0.00;;;;;;;6.38;100.00;101426.34;5030565;28;20262;-75
2022/10/09 06:53:36;;;;;;;0.00;0.00;;;;;;;6.44;100.00;101425.31;5030537;28;20179;-74
2022/10/09 06:56:02;;;;;;;0.00;0.00;;;;;;;6.49;100.00;101425.34;5024011;28;20648;-76
2022/10/09 06:58:27;;;;;;;0.00;0.00;;;;;;;6.57;100.00;101431.13;5024557;28;20207;-75
2022/10/09 07:01:02;;;;;;;0.00;0.00;;;;;;;6.59;100.00;101430.03;5030374;28;20632;-75
2022/10/09 07:03:27;;;;;;;0.00;0.00;;;;;;;6.63;100.00;101439.28;5014011;28;20195;-75
2022/10/09 07:05:53;;;;;;;0.00;0.00;;;;;;;6.74;100.00;101443.72;5000927;28;20180;-74
2022/10/09 07:08:19;;;;;;;0.00;0.00;;;;;;;6.79;100.00;101435.59;5004649;28;20184;-74
2022/10/09 07:10:44;;;;;;;0.00;0.00;;;;;;;6.85;100.00;101429.94;5010458;28;20211;-75
2022/10/09 07:13:09;;;;;;;0.00;0.00;;;;;;;6.92;100.00;101437.84;5021340;28;20719;-75
2022/10/09 07:15:35;;;;;;;0.00;0.00;;;;;;;6.97;100.00;101432.47;5022702;28;20216;-75
2022/10/09 07:18:02;;;;;;;0.00;0.00;;;;;;;6.99;100.00;101438.47;5025242;28;20180;-75
2022/10/09 07:20:27;;;;;;;0.07;0.07;;;;;;;7.06;100.00;101439.03;5020307;28;20524;-75
2022/10/09 07:22:52;;;;;;;0.00;0.00;;;;;;;7.15;100.00;101437.44;5021991;28;20176;-74
2022/10/09 07:25:17;;;;;;;0.20;0.20;;;;;;;7.30;100.00;101444.06;5015324;28;20231;-75
2022/10/09 07:27:43;;;;;;;0.00;0.00;;;;;;;7.32;100.00;101441.88;5018882;28;20196;-74
2022/10/09 07:30:08;;;;;;;0.97;0.97;;;;;;;7.42;100.00;101440.03;5026506;28;20191;-75
2022/10/09 07:32:34;;;;;;;0.00;0.00;;;;;;;7.54;100.00;101437.09;5025074;28;20272;-75
2022/10/09 07:34:59;;;;;;;0.00;0.00;;;;;;;7.61;100.00;101439.53;5022111;28;20208;-75
2022/10/09 07:37:24;;;;;;;0.00;0.00;;;;;;;7.66;100.00;101445.81;5013605;28;20185;-74
2022/10/09 07:39:50;;;;;;;0.30;0.30;;;;;;;7.74;100.00;101450.75;5013563;28;20219;-75
2022/10/09 07:42:15;;;;;;;0.00;0.00;;;;;;;7.85;100.00;101450.78;4995894;28;20250;-76
2022/10/09 07:44:40;;;;;;;0.00;0.00;;;;;;;7.92;100.00;101448.59;5013726;28;20177;-78
2022/10/09 07:47:05;;;;;;;0.00;0.00;;;;;;;7.87;100.00;101448.59;5015767;28;20227;-74
2022/10/09 07:49:31;;;;;;;0.00;0.00;;;;;;;7.97;100.00;101451.34;5033351;28;20645;-77
2022/10/09 07:51:56;;;;;;;0.00;0.00;;;;;;;7.92;100.00;101446.69;5033289;28;20179;-77
2022/10/09 07:54:21;;;;;;;0.00;0.00;;;;;;;7.96;100.00;101447.00;5033303;28;20199;-78
2022/10/09 07:56:46;;;;;;;0.00;0.00;;;;;;;7.99;100.00;101449.19;5032934;28;20176;-76
2022/10/09 07:59:14;;;;;;;0.00;0.00;;;;;;;8.02;100.00;101454.06;5033331;28;20560;-80
2022/10/09 08:01:40;;;;;;;0.00;0.00;;;;;;;8.08;100.00;101450.25;5033152;28;20172;-75
2022/10/09 08:04:06;;;;;;;0.00;0.00;;;;;;;8.17;100.00;101454.09;5034059;28;20234;-79
2022/10/09 08:06:33;;;;;;;0.63;0.63;;;;;;;8.34;100.00;101451.97;5035424;28;20172;-74
2022/10/09 08:09:00;;;;;;;0.00;0.00;;;;;;;8.41;100.00;101451.72;5033954;28;20635;-74
2022/10/09 08:11:28;;;;;;;0.00;0.00;;;;;;;8.48;100.00;101459.59;5033135;28;20191;-74
2022/10/09 08:13:53;;;;;;;0.00;0.00;;;;;;;8.57;100.00;101458.78;5020651;28;20208;-74
2022/10/09 08:16:20;;;;;;;0.00;0.00;;;;;;;8.74;100.00;101457.69;5012957;28;20184;-74
2022/10/09 08:18:46;;;;;;;0.00;0.00;;;;;;;8.81;100.00;101459.03;5012686;28;20292;-73
2022/10/09 08:21:14;;;;;;;0.00;0.00;;;;;;;8.91;100.00;101461.75;5032858;28;20172;-73
2022/10/09 08:23:40;;;;;;;0.00;0.00;;;;;;;9.00;100.00;101463.91;5032660;28;20176;-73
2022/10/09 08:26:17;;;;;;;0.00;0.00;;;;;;;9.27;100.00;101455.41;5032471;28;20179;-74
2022/10/09 08:28:43;;;;;;;0.00;0.00;;;;;;;9.48;100.00;101451.50;5032632;28;20275;-73
2022/10/09 08:31:14;;;;;;;0.00;0.00;;;;;;;9.52;100.00;101449.84;5030640;28;20674;-73
2022/10/09 08:33:39;;;;;;;0.00;0.00;;;;;;;9.64;100.00;101458.50;5012562;28;20165;-73
2022/10/09 08:36:06;;;;;;;0.00;0.00;;;;;;;9.79;100.00;101460.34;5012732;28;20172;-73
2022/10/09 08:38:33;;;;;;;0.00;0.00;;;;;;;9.72;100.00;101462.59;5012655;28;20238;-74
2022/10/09 08:41:05;;;;;;;0.00;0.00;;;;;;;9.84;100.00;101460.34;5012644;28;20184;-73
2022/10/09 08:43:34;;;;;;;0.00;0.00;;;;;;;9.86;100.00;101460.06;5012550;28;20180;-73
2022/10/09 08:46:05;;;;;;;0.10;0.10;;;;;;;9.95;100.00;101467.34;5012607;28;20620;-73
2022/10/09 08:48:38;;;;;;;0.00;0.00;;;;;;;10.02;100.00;101461.59;5028002;28;20177;-73
2022/10/09 08:51:08;;;;;;;0.00;0.00;;;;;;;10.00;100.00;101459.16;5012407;28;20274;-74
2022/10/09 08:53:46;;;;;;;0.40;0.40;;;;;;;10.08;100.00;101463.19;5012362;28;20169;-74
2022/10/09 08:56:13;;;;;;;0.10;0.10;;;;;;;10.14;100.00;101454.69;5011160;28;20176;-74
2022/10/09 08:58:41;;;;;;;0.00;0.00;;;;;;;10.25;100.00;101460.91;5012282;28;20283;-74
2022/10/09 09:01:17;;;;;;;0.00;0.00;;;;;;;10.30;100.00;101449.97;5012307;28;20184;-74
2022/10/09 09:03:48;;;;;;;0.30;0.30;;;;;;;10.31;100.00;101450.78;5012059;28;20671;-74
2022/10/09 09:06:27;;;;;;;0.10;0.10;;;;;;;10.29;100.00;101447.53;5011923;28;20187;-74
2022/10/09 09:09:00;;;;;;;0.00;0.00;;;;;;;10.31;100.00;101448.03;5012069;28;20674;-74
2022/10/09 09:11:39;;;;;;;0.00;0.00;;;;;;;10.43;100.00;101445.78;5012205;28;20169;-74
2022/10/09 09:14:37;;;;;;;0.00;0.00;;;;;;;10.50;100.00;101448.97;5012191;28;20199;-74
2022/10/09 09:17:21;;;;;;;0.00;0.00;;;;;;;10.57;100.00;101444.00;5010424;28;20268;-74
2022/10/09 09:20:02;;;;;;;0.00;0.00;;;;;;;10.67;100.00;101441.16;5011948;28;20176;-74
2022/10/09 09:22:29;;;;;;;1.10;0.63;;;;;;;10.76;100.00;101435.09;5011916;28;20169;-74
2022/10/09 09:24:56;;;;;;;0.00;0.00;;;;;;;10.95;100.00;101438.72;5010560;28;20553;-75
2022/10/09 09:27:28;;;;;;;0.20;0.20;;;;;;;11.02;100.00;101434.53;5011483;28;20231;-73
2022/10/09 09:29:56;;;;;;;0.00;0.00;;;;;;;11.41;100.00;101438.19;5010898;28;20185;-75
2022/10/09 09:32:25;;;;;;;0.07;0.07;;;;;;;11.56;100.00;101438.81;5011746;28;20675;-75
2022/10/09 09:34:55;;;;;;;0.20;0.20;;;;;;;11.76;94.36;101443.22;5011998;28;20254;-75
2022/10/09 09:37:22;;;;;;;0.03;0.03;;;;;;;11.85;89.05;101440.66;5010974;28;20207;-75
2022/10/09 09:39:47;;;;;;;0.53;0.40;;;;;;;12.18;87.00;101438.81;5011473;28;20172;-75
2022/10/09 09:42:15;;;;;;;0.00;0.00;;;;;;;12.33;87.61;101433.09;5011588;28;20235;-75
2022/10/09 09:44:46;;;;;;;0.00;0.00;;;;;;;12.30;85.73;101438.38;5013293;28;20234;-75
2022/10/09 09:47:22;;;;;;;1.50;0.40;;;;;;;12.52;81.01;101441.28;5005256;28;20184;-74
2022/10/09 09:50:00;;;;;;;0.00;0.00;;;;;;;12.69;79.36;101440.72;5016722;28;20653;-75
2022/10/09 09:52:28;;;;;;;0.00;0.00;;;;;;;12.68;78.50;101430.84;4993591;28;20199;-74
2022/10/09 09:54:56;;;;;;;0.00;0.00;;;;;;;12.71;80.99;101427.50;5011545;28;20575;-75
2022/10/09 09:57:30;;;;;;;1.20;0.63;;;;;;;12.88;77.21;101433.25;5011093;28;20173;-74
2022/10/09 10:00:21;;;;;;;0.40;0.40;;;;;;;12.97;77.47;101423.19;5011362;28;20687;-75
2022/10/09 10:02:47;;;;;;;0.17;0.17;;;;;;;13.05;76.57;101418.94;5011138;28;20189;-75
2022/10/09 10:05:23;;;;;;;0.10;0.10;;;;;;;13.07;75.42;101428.50;5011329;28;20176;-75
2022/10/09 10:07:50;;;;;;;0.20;0.20;;;;;;;12.90;75.61;101417.31;5011410;28;20197;-75
2022/10/09 10:10:22;;;;;;;0.00;0.00;;;;;;;13.04;76.02;101415.38;5011129;28;20168;-74
2022/10/09 10:12:50;;;;;;;0.30;0.30;;;;;;;13.25;75.59;101415.81;5011085;28;20207;-75
2022/10/09 10:15:30;;;;;;;0.10;0.10;;;;;;;13.39;74.72;101416.63;5024002;28;20206;-74
2022/10/09 10:18:16;;;;;;;0.00;0.00;;;;;;;13.41;74.03;101410.81;5030842;28;20175;-75
2022/10/09 10:20:51;;;;;;;1.70;0.40;;;;;;;13.35;74.20;101407.38;5028730;28;20601;-74
2022/10/09 10:23:39;;;;;;;2.97;0.30;;;;;;;13.41;75.13;101405.31;5011154;28;20165;-75
2022/10/09 10:26:07;;;;;;;0.00;0.00;;;;;;;13.41;75.13;101410.81;5010584;28;20183;-74
2022/10/09 10:28:42;;;;;;;0.00;0.00;;;;;;;13.54;75.65;101406.44;5011021;28;20175;-74
2022/10/09 10:31:14;;;;;;;0.87;0.67;;;;;;;13.50;74.12;101398.00;5011193;28;20160;-74
2022/10/09 10:33:43;;;;;;;0.00;0.00;;;;;;;13.53;74.64;101407.56;5011918;28;20169;-74
2022/10/09 10:36:09;;;;;;;0.00;0.00;;;;;;;13.65;76.17;101405.91;5011754;28;20184;-73
2022/10/09 10:38:42;;;;;;;0.00;0.00;;;;;;;13.67;72.62;101394.59;5010965;28;20177;-74
2022/10/09 10:41:36;;;;;;;0.00;0.00;;;;;;;13.78;73.87;101403.44;5013003;28;20179;-73
2022/10/09 10:44:20;;;;;;;0.43;0.43;;;;;;;13.83;74.12;101386.84;5014962;28;20172;-74
2022/10/09 10:46:52;;;;;;;0.40;0.40;;;;;;;13.97;74.85;101387.59;5014694;28;20644;-74
2022/10/09 10:49:20;;;;;;;3.90;1.00;;;;;;;14.06;73.77;101387.69;5015107;28;20237;-73
2022/10/09 10:51:54;;;;;;;0.00;0.00;;;;;;;14.02;73.34;101381.97;5014953;28;20169;-74
2022/10/09 10:54:35;;;;;;;0.00;0.00;;;;;;;14.00;73.78;101367.75;5014740;28;20718;-74
2022/10/09 10:57:13;;;;;;;0.00;0.00;;;;;;;14.21;73.89;101371.63;5013220;28;20179;-74
2022/10/09 11:00:02;;;;;;;4.23;1.93;;;;;;;14.42;72.53;101363.66;5014685;28;20536;-74
2022/10/09 11:02:46;;;;;;;0.00;0.00;;;;;;;14.48;71.19;101372.63;5014516;28;20566;-73
2022/10/09 11:05:21;;;;;;;0.00;0.00;;;;;;;14.32;72.05;101363.09;5029636;28;20176;-73
2022/10/09 11:08:05;;;;;;;0.00;0.00;;;;;;;14.42;71.69;101355.41;5014303;28;20172;-74
2022/10/09 11:11:04;;;;;;;0.13;0.10;;;;;;;14.41;69.67;101355.72;5014479;28;20181;-74
2022/10/09 11:13:49;;;;;;;0.10;0.10;;;;;;;14.45;69.11;101349.31;5014623;28;20201;-73
2022/10/09 11:16:33;;;;;;;0.07;0.00;;;;;;;14.43;68.55;101348.78;5014129;28;20183;-74
2022/10/09 11:19:39;;;;;;;0.10;0.10;;;;;;;14.57;67.56;101351.47;5014226;28;20543;-74
2022/10/09 11:22:32;;;;;;;0.10;0.10;;;;;;;14.57;67.94;101338.53;5014187;28;20176;-74
2022/10/09 11:25:05;;;;;;;0.00;0.00;;;;;;;14.39;66.78;101322.25;5012358;28;20192;-73
2022/10/09 11:28:12;;;;;;;0.00;0.00;;;;;;;14.64;67.29;101329.03;5029054;28;20227;-73
2022/10/09 11:31:08;;;;;;;1.00;0.10;;;;;;;14.71;64.21;101329.38;5006624;28;20196;-73
2022/10/09 11:33:43;;;;;;;0.10;0.10;;;;;;;14.71;65.14;101323.88;5007563;28;20199;-73
2022/10/09 11:36:20;;;;;;;0.47;0.47;;;;;;;14.81;64.45;101324.41;5013684;28;20187;-73